sensor_id;sensor_type;location;lat;lon;timestamp;P1;durP1;ratioP1;P2;durP2;ratioP2
18162;SDS011;9206;50.994;4.538;2023-08-20T00:02:03;13.25;;;3.05;;
18162;SDS011;9206;50.994;4.538;2023-08-20T00:08:39;10.25;;;3.10;;
18162;SDS011;9206;50.994;4.538;2023-08-20T00:11:56;8.57;;;3.08;;
18162;SDS011;9206;50.994;4.538;2023-08-20T00:15:01;8.00;;;2.78;;
18162;SDS011;9206;50.994;4.538;2023-08-20T00:27:43;6.55;;;2.90;;
18162;SDS011;9206;50.994;4.538;2023-08-20T00:30:42;6.10;;;2.78;;
18162;SDS011;9206;50.994;4.538;2023-08-20T00:33:44;5.65;;;2.90;;
18162;SDS011;9206;50.994;4.538;2023-08-20T00:36:32;9.15;;;3.00;;
18162;SDS011;9206;50.994;4.538;2023-08-20T00:42:52;6.18;;;2.90;;
18162;SDS011;9206;50.994;4.538;2023-08-20T00:45:58;8.52;;;3.20;;
18162;SDS011;9206;50.994;4.538;2023-08-20T00:48:52;6.88;;;3.08;;
18162;SDS011;9206;50.994;4.538;2023-08-20T00:51:56;8.23;;;3.08;;
18162;SDS011;9206;50.994;4.538;2023-08-20T00:58:01;6.13;;;3.20;;
18162;SDS011;9206;50.994;4.538;2023-08-20T01:01:10;6.32;;;3.13;;
18162;SDS011;9206;50.994;4.538;2023-08-20T01:07:10;8.02;;;3.25;;
18162;SDS011;9206;50.994;4.538;2023-08-20T01:10:12;8.02;;;3.05;;
18162;SDS011;9206;50.994;4.538;2023-08-20T01:13:06;5.22;;;2.72;;
18162;SDS011;9206;50.994;4.538;2023-08-20T01:18:50;6.35;;;2.67;;
18162;SDS011;9206;50.994;4.538;2023-08-20T01:21:43;3.58;;;2.90;;
18162;SDS011;9206;50.994;4.538;2023-08-20T01:25:11;6.07;;;3.05;;
18162;SDS011;9206;50.994;4.538;2023-08-20T01:28:35;11.73;;;3.50;;
18162;SDS011;9206;50.994;4.538;2023-08-20T01:31:35;5.75;;;3.33;;
18162;SDS011;9206;50.994;4.538;2023-08-20T01:34:29;7.85;;;2.72;;
18162;SDS011;9206;50.994;4.538;2023-08-20T01:38:18;4.90;;;2.70;;
18162;SDS011;9206;50.994;4.538;2023-08-20T01:44:20;3.83;;;2.55;;
18162;SDS011;9206;50.994;4.538;2023-08-20T01:50:35;8.77;;;2.78;;
18162;SDS011;9206;50.994;4.538;2023-08-20T01:53:29;5.95;;;2.55;;
18162;SDS011;9206;50.994;4.538;2023-08-20T01:56:25;6.15;;;3.00;;
18162;SDS011;9206;50.994;4.538;2023-08-20T01:59:17;6.55;;;2.35;;
18162;SDS011;9206;50.994;4.538;2023-08-20T02:02:42;9.98;;;3.33;;
18162;SDS011;9206;50.994;4.538;2023-08-20T02:05:40;8.48;;;3.40;;
18162;SDS011;9206;50.994;4.538;2023-08-20T02:08:55;5.63;;;2.80;;
18162;SDS011;9206;50.994;4.538;2023-08-20T02:11:54;13.40;;;3.63;;
18162;SDS011;9206;50.994;4.538;2023-08-20T02:14:50;7.20;;;2.90;;
18162;SDS011;9206;50.994;4.538;2023-08-20T02:20:35;8.30;;;2.88;;
18162;SDS011;9206;50.994;4.538;2023-08-20T02:23:23;7.70;;;3.45;;
18162;SDS011;9206;50.994;4.538;2023-08-20T02:26:13;6.18;;;2.70;;
18162;SDS011;9206;50.994;4.538;2023-08-20T02:29:11;6.50;;;2.60;;
18162;SDS011;9206;50.994;4.538;2023-08-20T02:32:33;7.53;;;3.40;;
18162;SDS011;9206;50.994;4.538;2023-08-20T02:39:46;8.90;;;2.97;;
18162;SDS011;9206;50.994;4.538;2023-08-20T02:42:35;5.72;;;3.00;;
18162;SDS011;9206;50.994;4.538;2023-08-20T02:45:25;5.38;;;3.10;;
18162;SDS011;9206;50.994;4.538;2023-08-20T02:48:16;4.72;;;2.88;;
18162;SDS011;9206;50.994;4.538;2023-08-20T02:51:23;5.95;;;3.22;;
18162;SDS011;9206;50.994;4.538;2023-08-20T02:54:11;5.25;;;3.15;;
18162;SDS011;9206;50.994;4.538;2023-08-20T02:57:49;4.80;;;3.00;;
18162;SDS011;9206;50.994;4.538;2023-08-20T03:01:16;6.90;;;3.33;;
18162;SDS011;9206;50.994;4.538;2023-08-20T03:04:22;5.47;;;3.03;;
18162;SDS011;9206;50.994;4.538;2023-08-20T03:07:17;5.85;;;3.00;;
18162;SDS011;9206;50.994;4.538;2023-08-20T03:10:15;5.63;;;3.25;;
18162;SDS011;9206;50.994;4.538;2023-08-20T03:13:32;3.97;;;2.50;;
18162;SDS011;9206;50.994;4.538;2023-08-20T03:16:21;5.75;;;2.95;;
18162;SDS011;9206;50.994;4.538;2023-08-20T03:19:14;7.25;;;3.00;;
18162;SDS011;9206;50.994;4.538;2023-08-20T03:22:06;5.78;;;3.03;;
18162;SDS011;9206;50.994;4.538;2023-08-20T03:24:57;4.90;;;2.67;;
18162;SDS011;9206;50.994;4.538;2023-08-20T03:27:45;4.00;;;2.70;;
18162;SDS011;9206;50.994;4.538;2023-08-20T03:30:38;5.75;;;3.00;;
18162;SDS011;9206;50.994;4.538;2023-08-20T03:33:41;7.28;;;2.97;;
18162;SDS011;9206;50.994;4.538;2023-08-20T03:36:46;3.33;;;2.72;;
18162;SDS011;9206;50.994;4.538;2023-08-20T03:39:36;6.78;;;2.92;;
18162;SDS011;9206;50.994;4.538;2023-08-20T03:42:43;7.32;;;3.13;;
18162;SDS011;9206;50.994;4.538;2023-08-20T03:45:32;3.65;;;2.65;;
18162;SDS011;9206;50.994;4.538;2023-08-20T03:48:31;7.30;;;3.63;;
18162;SDS011;9206;50.994;4.538;2023-08-20T03:51:27;6.22;;;2.88;;
18162;SDS011;9206;50.994;4.538;2023-08-20T03:54:17;5.80;;;2.65;;
18162;SDS011;9206;50.994;4.538;2023-08-20T04:00:12;3.28;;;2.70;;
18162;SDS011;9206;50.994;4.538;2023-08-20T04:03:50;7.95;;;2.85;;
18162;SDS011;9206;50.994;4.538;2023-08-20T04:07:10;5.00;;;3.38;;
18162;SDS011;9206;50.994;4.538;2023-08-20T04:16:39;3.95;;;2.50;;
18162;SDS011;9206;50.994;4.538;2023-08-20T04:19:30;3.08;;;2.45;;
18162;SDS011;9206;50.994;4.538;2023-08-20T04:22:26;9.90;;;2.63;;
18162;SDS011;9206;50.994;4.538;2023-08-20T04:25:17;6.00;;;2.80;;
18162;SDS011;9206;50.994;4.538;2023-08-20T04:31:49;5.63;;;3.05;;
18162;SDS011;9206;50.994;4.538;2023-08-20T04:34:38;3.80;;;2.42;;
18162;SDS011;9206;50.994;4.538;2023-08-20T04:37:40;2.50;;;2.28;;
18162;SDS011;9206;50.994;4.538;2023-08-20T04:40:53;6.15;;;2.75;;
18162;SDS011;9206;50.994;4.538;2023-08-20T04:43:52;4.88;;;2.90;;
18162;SDS011;9206;50.994;4.538;2023-08-20T04:46:41;7.10;;;3.17;;
18162;SDS011;9206;50.994;4.538;2023-08-20T04:49:36;4.60;;;3.10;;
18162;SDS011;9206;50.994;4.538;2023-08-20T04:52:28;5.40;;;3.03;;
18162;SDS011;9206;50.994;4.538;2023-08-20T04:58:13;6.35;;;2.97;;
18162;SDS011;9206;50.994;4.538;2023-08-20T05:01:03;6.32;;;2.92;;
18162;SDS011;9206;50.994;4.538;2023-08-20T05:06:49;6.85;;;3.00;;
18162;SDS011;9206;50.994;4.538;2023-08-20T05:09:40;3.92;;;2.83;;
18162;SDS011;9206;50.994;4.538;2023-08-20T05:12:37;4.70;;;2.65;;
18162;SDS011;9206;50.994;4.538;2023-08-20T05:15:46;2.67;;;2.47;;
18162;SDS011;9206;50.994;4.538;2023-08-20T05:18:36;2.80;;;2.60;;
18162;SDS011;9206;50.994;4.538;2023-08-20T05:21:26;3.10;;;2.80;;
18162;SDS011;9206;50.994;4.538;2023-08-20T05:24:18;4.00;;;2.92;;
18162;SDS011;9206;50.994;4.538;2023-08-20T05:27:07;5.10;;;2.88;;
18162;SDS011;9206;50.994;4.538;2023-08-20T05:33:52;6.65;;;3.00;;
18162;SDS011;9206;50.994;4.538;2023-08-20T05:36:52;3.33;;;2.80;;
18162;SDS011;9206;50.994;4.538;2023-08-20T05:39:47;4.88;;;2.58;;
18162;SDS011;9206;50.994;4.538;2023-08-20T05:42:35;2.42;;;2.22;;
18162;SDS011;9206;50.994;4.538;2023-08-20T05:45:23;2.55;;;2.15;;
18162;SDS011;9206;50.994;4.538;2023-08-20T05:51:10;3.20;;;2.47;;
18162;SDS011;9206;50.994;4.538;2023-08-20T05:54:00;5.30;;;3.03;;
18162;SDS011;9206;50.994;4.538;2023-08-20T06:00:02;3.33;;;2.38;;
18162;SDS011;9206;50.994;4.538;2023-08-20T06:02:55;3.90;;;2.25;;
18162;SDS011;9206;50.994;4.538;2023-08-20T06:05:48;3.67;;;2.30;;
18162;SDS011;9206;50.994;4.538;2023-08-20T06:12:37;3.83;;;1.90;;
18162;SDS011;9206;50.994;4.538;2023-08-20T06:15:27;4.63;;;2.42;;
18162;SDS011;9206;50.994;4.538;2023-08-20T06:18:45;3.70;;;2.40;;
18162;SDS011;9206;50.994;4.538;2023-08-20T06:25:38;4.55;;;2.25;;
18162;SDS011;9206;50.994;4.538;2023-08-20T06:35:48;4.10;;;2.40;;
18162;SDS011;9206;50.994;4.538;2023-08-20T06:38:47;4.95;;;2.53;;
18162;SDS011;9206;50.994;4.538;2023-08-20T06:41:41;4.95;;;2.53;;
18162;SDS011;9206;50.994;4.538;2023-08-20T06:44:32;3.78;;;2.20;;
18162;SDS011;9206;50.994;4.538;2023-08-20T07:18:00;4.28;;;2.00;;
18162;SDS011;9206;50.994;4.538;2023-08-20T07:21:09;3.35;;;2.10;;
18162;SDS011;9206;50.994;4.538;2023-08-20T07:26:54;8.18;;;1.92;;
18162;SDS011;9206;50.994;4.538;2023-08-20T07:28:40;3.15;;;2.35;;
18162;SDS011;9206;50.994;4.538;2023-08-20T07:54:35;2.10;;;1.83;;
18162;SDS011;9206;50.994;4.538;2023-08-20T07:57:38;2.95;;;1.90;;
18162;SDS011;9206;50.994;4.538;2023-08-20T08:07:23;2.50;;;1.50;;
18162;SDS011;9206;50.994;4.538;2023-08-20T08:10:12;4.22;;;1.38;;
18162;SDS011;9206;50.994;4.538;2023-08-20T08:13:03;2.80;;;1.40;;
18162;SDS011;9206;50.994;4.538;2023-08-20T08:15:55;1.75;;;1.30;;
18162;SDS011;9206;50.994;4.538;2023-08-20T08:18:46;1.50;;;1.20;;
18162;SDS011;9206;50.994;4.538;2023-08-20T08:21:35;1.85;;;1.35;;
18162;SDS011;9206;50.994;4.538;2023-08-20T08:24:25;2.40;;;1.27;;
18162;SDS011;9206;50.994;4.538;2023-08-20T08:27:20;1.77;;;1.48;;
18162;SDS011;9206;50.994;4.538;2023-08-20T08:30:18;1.77;;;1.40;;
18162;SDS011;9206;50.994;4.538;2023-08-20T08:33:31;2.28;;;1.23;;
18162;SDS011;9206;50.994;4.538;2023-08-20T08:39:40;2.60;;;1.25;;
18162;SDS011;9206;50.994;4.538;2023-08-20T08:42:28;1.70;;;1.08;;
18162;SDS011;9206;50.994;4.538;2023-08-20T08:48:08;1.20;;;1.10;;
18162;SDS011;9206;50.994;4.538;2023-08-20T08:51:01;1.92;;;1.13;;
18162;SDS011;9206;50.994;4.538;2023-08-20T08:53:50;1.67;;;1.17;;
18162;SDS011;9206;50.994;4.538;2023-08-20T08:56:41;1.70;;;0.98;;
18162;SDS011;9206;50.994;4.538;2023-08-20T08:59:29;1.55;;;0.95;;
18162;SDS011;9206;50.994;4.538;2023-08-20T09:02:22;2.28;;;1.15;;
18162;SDS011;9206;50.994;4.538;2023-08-20T09:05:12;1.33;;;0.90;;
18162;SDS011;9206;50.994;4.538;2023-08-20T09:08:02;1.90;;;0.93;;
18162;SDS011;9206;50.994;4.538;2023-08-20T09:10:52;1.52;;;0.98;;
18162;SDS011;9206;50.994;4.538;2023-08-20T09:13:48;1.75;;;1.00;;
18162;SDS011;9206;50.994;4.538;2023-08-20T09:16:42;0.82;;;0.70;;
18162;SDS011;9206;50.994;4.538;2023-08-20T09:19:29;1.08;;;0.70;;
18162;SDS011;9206;50.994;4.538;2023-08-20T09:22:28;0.77;;;0.70;;
18162;SDS011;9206;50.994;4.538;2023-08-20T09:25:15;3.00;;;1.10;;
18162;SDS011;9206;50.994;4.538;2023-08-20T09:28:05;0.80;;;0.75;;
18162;SDS011;9206;50.994;4.538;2023-08-20T09:30:56;1.20;;;0.88;;
18162;SDS011;9206;50.994;4.538;2023-08-20T09:33:51;0.77;;;0.77;;
18162;SDS011;9206;50.994;4.538;2023-08-20T09:39:32;1.00;;;0.68;;
18162;SDS011;9206;50.994;4.538;2023-08-20T09:42:22;2.88;;;1.05;;
18162;SDS011;9206;50.994;4.538;2023-08-20T09:48:13;0.82;;;0.47;;
18162;SDS011;9206;50.994;4.538;2023-08-20T09:51:04;0.60;;;0.60;;
18162;SDS011;9206;50.994;4.538;2023-08-20T09:53:56;0.73;;;0.65;;
18162;SDS011;9206;50.994;4.538;2023-08-20T09:56:57;1.02;;;0.90;;
18162;SDS011;9206;50.994;4.538;2023-08-20T10:02:38;0.50;;;0.50;;
18162;SDS011;9206;50.994;4.538;2023-08-20T10:05:28;0.52;;;0.40;;
18162;SDS011;9206;50.994;4.538;2023-08-20T10:08:21;0.93;;;0.60;;
18162;SDS011;9206;50.994;4.538;2023-08-20T10:11:15;0.63;;;0.40;;
18162;SDS011;9206;50.994;4.538;2023-08-20T10:14:03;1.33;;;0.52;;
18162;SDS011;9206;50.994;4.538;2023-08-20T10:16:52;0.90;;;0.60;;
18162;SDS011;9206;50.994;4.538;2023-08-20T10:19:46;1.55;;;0.90;;
18162;SDS011;9206;50.994;4.538;2023-08-20T10:22:41;0.75;;;0.68;;
18162;SDS011;9206;50.994;4.538;2023-08-20T10:25:40;1.30;;;0.80;;
18162;SDS011;9206;50.994;4.538;2023-08-20T10:28:30;1.05;;;0.77;;
18162;SDS011;9206;50.994;4.538;2023-08-20T10:31:19;1.13;;;0.88;;
18162;SDS011;9206;50.994;4.538;2023-08-20T10:34:12;0.65;;;0.52;;
18162;SDS011;9206;50.994;4.538;2023-08-20T10:37:26;2.45;;;1.00;;
18162;SDS011;9206;50.994;4.538;2023-08-20T10:43:46;0.98;;;0.60;;
18162;SDS011;9206;50.994;4.538;2023-08-20T10:46:50;1.48;;;1.00;;
18162;SDS011;9206;50.994;4.538;2023-08-20T10:49:44;1.58;;;0.77;;
18162;SDS011;9206;50.994;4.538;2023-08-20T10:52:40;0.80;;;0.77;;
18162;SDS011;9206;50.994;4.538;2023-08-20T10:55:35;2.53;;;1.00;;
18162;SDS011;9206;50.994;4.538;2023-08-20T10:58:27;1.20;;;0.77;;
18162;SDS011;9206;50.994;4.538;2023-08-20T11:01:19;1.10;;;1.00;;
18162;SDS011;9206;50.994;4.538;2023-08-20T11:04:20;1.35;;;0.85;;
18162;SDS011;9206;50.994;4.538;2023-08-20T11:10:39;2.00;;;0.95;;
18162;SDS011;9206;50.994;4.538;2023-08-20T11:17:20;2.72;;;0.90;;
18162;SDS011;9206;50.994;4.538;2023-08-20T11:23:25;1.50;;;1.02;;
18162;SDS011;9206;50.994;4.538;2023-08-20T11:26:14;1.17;;;0.80;;
18162;SDS011;9206;50.994;4.538;2023-08-20T11:29:05;1.73;;;0.90;;
18162;SDS011;9206;50.994;4.538;2023-08-20T11:38:39;1.63;;;1.02;;
18162;SDS011;9206;50.994;4.538;2023-08-20T11:41:31;1.80;;;1.10;;
18162;SDS011;9206;50.994;4.538;2023-08-20T12:02:24;1.33;;;0.80;;
18162;SDS011;9206;50.994;4.538;2023-08-20T12:05:19;1.45;;;0.93;;
18162;SDS011;9206;50.994;4.538;2023-08-20T12:08:14;2.67;;;1.52;;
18162;SDS011;9206;50.994;4.538;2023-08-20T12:11:06;3.70;;;1.00;;
18162;SDS011;9206;50.994;4.538;2023-08-20T12:14:04;0.93;;;0.90;;
18162;SDS011;9206;50.994;4.538;2023-08-20T12:27:45;2.95;;;0.95;;
18162;SDS011;9206;50.994;4.538;2023-08-20T12:31:16;1.98;;;0.90;;
18162;SDS011;9206;50.994;4.538;2023-08-20T12:34:04;1.73;;;1.05;;
18162;SDS011;9206;50.994;4.538;2023-08-20T12:36:52;2.05;;;1.05;;
18162;SDS011;9206;50.994;4.538;2023-08-20T12:39:47;3.38;;;1.45;;
18162;SDS011;9206;50.994;4.538;2023-08-20T12:42:35;2.78;;;1.20;;
18162;SDS011;9206;50.994;4.538;2023-08-20T12:45:25;1.70;;;1.10;;
18162;SDS011;9206;50.994;4.538;2023-08-20T12:48:18;2.67;;;1.20;;
18162;SDS011;9206;50.994;4.538;2023-08-20T12:51:06;2.00;;;1.27;;
18162;SDS011;9206;50.994;4.538;2023-08-20T12:53:55;2.55;;;1.10;;
18162;SDS011;9206;50.994;4.538;2023-08-20T12:56:44;3.30;;;1.27;;
18162;SDS011;9206;50.994;4.538;2023-08-20T13:02:30;1.58;;;1.25;;
18162;SDS011;9206;50.994;4.538;2023-08-20T13:05:25;1.88;;;0.98;;
18162;SDS011;9206;50.994;4.538;2023-08-20T13:08:14;2.00;;;0.98;;
18162;SDS011;9206;50.994;4.538;2023-08-20T13:11:04;2.28;;;1.10;;
18162;SDS011;9206;50.994;4.538;2023-08-20T13:17:25;1.90;;;0.85;;
18162;SDS011;9206;50.994;4.538;2023-08-20T13:23:37;1.63;;;0.98;;
18162;SDS011;9206;50.994;4.538;2023-08-20T13:30:10;3.03;;;1.05;;
18162;SDS011;9206;50.994;4.538;2023-08-20T13:33:00;1.42;;;1.00;;
18162;SDS011;9206;50.994;4.538;2023-08-20T13:39:25;1.10;;;1.00;;
18162;SDS011;9206;50.994;4.538;2023-08-20T13:42:46;1.60;;;1.30;;
18162;SDS011;9206;50.994;4.538;2023-08-20T13:49:06;2.80;;;1.42;;
18162;SDS011;9206;50.994;4.538;2023-08-20T13:51:55;3.13;;;1.25;;
18162;SDS011;9206;50.994;4.538;2023-08-20T13:54:45;1.27;;;1.00;;
18162;SDS011;9206;50.994;4.538;2023-08-20T13:57:46;1.52;;;1.00;;
18162;SDS011;9206;50.994;4.538;2023-08-20T14:00:56;3.72;;;1.27;;
18162;SDS011;9206;50.994;4.538;2023-08-20T14:03:46;1.20;;;1.10;;
18162;SDS011;9206;50.994;4.538;2023-08-20T14:06:36;1.80;;;1.00;;
18162;SDS011;9206;50.994;4.538;2023-08-20T14:09:29;2.05;;;1.33;;
18162;SDS011;9206;50.994;4.538;2023-08-20T14:12:25;2.33;;;1.00;;
18162;SDS011;9206;50.994;4.538;2023-08-20T14:18:27;1.23;;;1.02;;
18162;SDS011;9206;50.994;4.538;2023-08-20T14:22:04;1.98;;;1.25;;
18162;SDS011;9206;50.994;4.538;2023-08-20T14:24:55;1.85;;;1.27;;
18162;SDS011;9206;50.994;4.538;2023-08-20T14:27:44;1.95;;;1.00;;
18162;SDS011;9206;50.994;4.538;2023-08-20T14:33:59;2.97;;;1.00;;
18162;SDS011;9206;50.994;4.538;2023-08-20T14:36:50;1.50;;;1.20;;
18162;SDS011;9206;50.994;4.538;2023-08-20T14:40:02;1.25;;;1.08;;
18162;SDS011;9206;50.994;4.538;2023-08-20T14:43:16;2.22;;;1.15;;
18162;SDS011;9206;50.994;4.538;2023-08-20T14:46:04;1.63;;;1.20;;
18162;SDS011;9206;50.994;4.538;2023-08-20T14:48:52;1.92;;;1.40;;
18162;SDS011;9206;50.994;4.538;2023-08-20T14:51:46;2.90;;;1.30;;
18162;SDS011;9206;50.994;4.538;2023-08-20T14:54:39;1.50;;;1.30;;
18162;SDS011;9206;50.994;4.538;2023-08-20T15:00:53;4.80;;;1.33;;
18162;SDS011;9206;50.994;4.538;2023-08-20T15:03:40;1.50;;;1.02;;
18162;SDS011;9206;50.994;4.538;2023-08-20T15:06:33;2.38;;;1.20;;
18162;SDS011;9206;50.994;4.538;2023-08-20T15:09:21;1.70;;;1.17;;
18162;SDS011;9206;50.994;4.538;2023-08-20T15:12:13;2.10;;;1.27;;
18162;SDS011;9206;50.994;4.538;2023-08-20T15:15:30;2.03;;;1.20;;
18162;SDS011;9206;50.994;4.538;2023-08-20T15:21:19;1.95;;;1.30;;
18162;SDS011;9206;50.994;4.538;2023-08-20T15:24:20;1.73;;;1.10;;
18162;SDS011;9206;50.994;4.538;2023-08-20T15:30:40;2.45;;;1.23;;
18162;SDS011;9206;50.994;4.538;2023-08-20T15:33:43;1.17;;;1.00;;
18162;SDS011;9206;50.994;4.538;2023-08-20T15:36:38;3.65;;;1.13;;
18162;SDS011;9206;50.994;4.538;2023-08-20T15:39:31;2.25;;;1.13;;
18162;SDS011;9206;50.994;4.538;2023-08-20T15:42:36;3.15;;;0.90;;
18162;SDS011;9206;50.994;4.538;2023-08-20T15:48:58;2.00;;;1.40;;
18162;SDS011;9206;50.994;4.538;2023-08-20T15:51:48;2.55;;;1.35;;
18162;SDS011;9206;50.994;4.538;2023-08-20T15:54:37;2.05;;;1.00;;
18162;SDS011;9206;50.994;4.538;2023-08-20T15:57:24;1.90;;;1.10;;
18162;SDS011;9206;50.994;4.538;2023-08-20T16:00:16;2.08;;;1.05;;
18162;SDS011;9206;50.994;4.538;2023-08-20T16:03:08;2.30;;;1.30;;
18162;SDS011;9206;50.994;4.538;2023-08-20T16:06:00;1.98;;;1.20;;
18162;SDS011;9206;50.994;4.538;2023-08-20T16:08:49;3.25;;;1.08;;
18162;SDS011;9206;50.994;4.538;2023-08-20T16:11:38;2.30;;;1.30;;
18162;SDS011;9206;50.994;4.538;2023-08-20T16:14:37;1.42;;;1.10;;
18162;SDS011;9206;50.994;4.538;2023-08-20T16:17:45;3.47;;;1.38;;
18162;SDS011;9206;50.994;4.538;2023-08-20T16:20:53;1.92;;;1.23;;
18162;SDS011;9206;50.994;4.538;2023-08-20T16:27:10;2.20;;;1.20;;
18162;SDS011;9206;50.994;4.538;2023-08-20T16:30:04;2.78;;;1.10;;
18162;SDS011;9206;50.994;4.538;2023-08-20T16:32:58;1.70;;;1.05;;
18162;SDS011;9206;50.994;4.538;2023-08-20T16:36:00;1.98;;;1.10;;
18162;SDS011;9206;50.994;4.538;2023-08-20T16:42:21;2.53;;;1.33;;
18162;SDS011;9206;50.994;4.538;2023-08-20T16:45:09;1.25;;;1.05;;
18162;SDS011;9206;50.994;4.538;2023-08-20T16:50:59;2.63;;;1.13;;
18162;SDS011;9206;50.994;4.538;2023-08-20T16:53:49;3.38;;;1.48;;
18162;SDS011;9206;50.994;4.538;2023-08-20T16:56:39;1.95;;;1.17;;
18162;SDS011;9206;50.994;4.538;2023-08-20T16:59:29;4.53;;;1.55;;
18162;SDS011;9206;50.994;4.538;2023-08-20T17:02:18;2.25;;;1.33;;
18162;SDS011;9206;50.994;4.538;2023-08-20T17:05:07;2.35;;;1.42;;
18162;SDS011;9206;50.994;4.538;2023-08-20T17:07:58;3.15;;;1.40;;
18162;SDS011;9206;50.994;4.538;2023-08-20T17:10:52;3.67;;;1.58;;
18162;SDS011;9206;50.994;4.538;2023-08-20T17:13:41;3.92;;;1.60;;
18162;SDS011;9206;50.994;4.538;2023-08-20T17:16:31;4.38;;;1.55;;
18162;SDS011;9206;50.994;4.538;2023-08-20T17:19:26;2.15;;;1.52;;
18162;SDS011;9206;50.994;4.538;2023-08-20T17:22:17;4.22;;;1.42;;
18162;SDS011;9206;50.994;4.538;2023-08-20T17:27:56;4.00;;;1.50;;
18162;SDS011;9206;50.994;4.538;2023-08-20T17:30:44;2.95;;;1.38;;
18162;SDS011;9206;50.994;4.538;2023-08-20T17:33:34;1.95;;;1.20;;
18162;SDS011;9206;50.994;4.538;2023-08-20T17:36:23;3.88;;;0.90;;
18162;SDS011;9206;50.994;4.538;2023-08-20T17:39:11;5.22;;;1.45;;
18162;SDS011;9206;50.994;4.538;2023-08-20T17:42:00;4.53;;;1.52;;
18162;SDS011;9206;50.994;4.538;2023-08-20T17:44:50;1.58;;;1.45;;
18162;SDS011;9206;50.994;4.538;2023-08-20T17:47:41;2.95;;;1.30;;
18162;SDS011;9206;50.994;4.538;2023-08-20T17:50:35;2.35;;;1.40;;
18162;SDS011;9206;50.994;4.538;2023-08-20T17:53:25;2.88;;;1.40;;
18162;SDS011;9206;50.994;4.538;2023-08-20T17:56:19;1.67;;;1.58;;
18162;SDS011;9206;50.994;4.538;2023-08-20T17:59:10;4.07;;;1.50;;
18162;SDS011;9206;50.994;4.538;2023-08-20T18:01:59;3.97;;;1.60;;
18162;SDS011;9206;50.994;4.538;2023-08-20T18:04:46;4.47;;;1.60;;
18162;SDS011;9206;50.994;4.538;2023-08-20T18:07:40;2.55;;;1.45;;
18162;SDS011;9206;50.994;4.538;2023-08-20T18:10:27;4.95;;;1.70;;
18162;SDS011;9206;50.994;4.538;2023-08-20T18:13:18;2.55;;;1.40;;
18162;SDS011;9206;50.994;4.538;2023-08-20T18:16:11;3.47;;;1.48;;
18162;SDS011;9206;50.994;4.538;2023-08-20T18:19:02;2.33;;;1.60;;
18162;SDS011;9206;50.994;4.538;2023-08-20T18:21:55;6.20;;;1.67;;
18162;SDS011;9206;50.994;4.538;2023-08-20T18:24:47;4.30;;;1.33;;
18162;SDS011;9206;50.994;4.538;2023-08-20T18:27:36;2.70;;;1.80;;
18162;SDS011;9206;50.994;4.538;2023-08-20T18:30:45;4.78;;;1.88;;
18162;SDS011;9206;50.994;4.538;2023-08-20T18:33:35;4.68;;;1.75;;
18162;SDS011;9206;50.994;4.538;2023-08-20T18:36:23;7.63;;;1.92;;
18162;SDS011;9206;50.994;4.538;2023-08-20T18:39:11;4.22;;;1.60;;
18162;SDS011;9206;50.994;4.538;2023-08-20T18:42:04;4.32;;;1.77;;
18162;SDS011;9206;50.994;4.538;2023-08-20T18:47:42;2.88;;;1.55;;
18162;SDS011;9206;50.994;4.538;2023-08-20T18:50:31;4.30;;;1.85;;
18162;SDS011;9206;50.994;4.538;2023-08-20T18:53:24;4.97;;;1.88;;
18162;SDS011;9206;50.994;4.538;2023-08-20T18:56:13;2.47;;;1.67;;
18162;SDS011;9206;50.994;4.538;2023-08-20T18:59:03;3.22;;;1.65;;
18162;SDS011;9206;50.994;4.538;2023-08-20T19:01:54;3.80;;;1.80;;
18162;SDS011;9206;50.994;4.538;2023-08-20T19:04:42;4.63;;;1.50;;
18162;SDS011;9206;50.994;4.538;2023-08-20T19:07:35;4.40;;;1.80;;
18162;SDS011;9206;50.994;4.538;2023-08-20T19:10:27;5.45;;;1.67;;
18162;SDS011;9206;50.994;4.538;2023-08-20T19:13:14;3.13;;;1.77;;
18162;SDS011;9206;50.994;4.538;2023-08-20T19:16:09;3.00;;;1.38;;
18162;SDS011;9206;50.994;4.538;2023-08-20T19:19:02;6.30;;;2.05;;
18162;SDS011;9206;50.994;4.538;2023-08-20T19:21:51;6.07;;;1.77;;
18162;SDS011;9206;50.994;4.538;2023-08-20T19:27:29;3.67;;;2.00;;
18162;SDS011;9206;50.994;4.538;2023-08-20T19:30:19;2.35;;;1.70;;
18162;SDS011;9206;50.994;4.538;2023-08-20T19:33:13;6.18;;;2.22;;
18162;SDS011;9206;50.994;4.538;2023-08-20T19:36:02;2.47;;;1.50;;
18162;SDS011;9206;50.994;4.538;2023-08-20T19:38:50;5.25;;;1.77;;
18162;SDS011;9206;50.994;4.538;2023-08-20T19:41:43;3.83;;;1.60;;
18162;SDS011;9206;50.994;4.538;2023-08-20T19:44:33;4.07;;;1.60;;
18162;SDS011;9206;50.994;4.538;2023-08-20T19:47:21;6.13;;;1.83;;
18162;SDS011;9206;50.994;4.538;2023-08-20T19:50:16;3.47;;;2.03;;
18162;SDS011;9206;50.994;4.538;2023-08-20T19:55:55;4.63;;;1.83;;
18162;SDS011;9206;50.994;4.538;2023-08-20T19:58:43;4.15;;;1.92;;
18162;SDS011;9206;50.994;4.538;2023-08-20T20:01:38;8.13;;;2.10;;
18162;SDS011;9206;50.994;4.538;2023-08-20T20:07:23;3.78;;;1.90;;
18162;SDS011;9206;50.994;4.538;2023-08-20T20:10:13;1.83;;;1.45;;
18162;SDS011;9206;50.994;4.538;2023-08-20T20:13:03;5.30;;;1.70;;
18162;SDS011;9206;50.994;4.538;2023-08-20T20:15:57;4.35;;;1.40;;
18162;SDS011;9206;50.994;4.538;2023-08-20T20:18:47;4.85;;;1.60;;
18162;SDS011;9206;50.994;4.538;2023-08-20T20:21:34;2.10;;;1.45;;
18162;SDS011;9206;50.994;4.538;2023-08-20T20:24:28;2.42;;;1.40;;
18162;SDS011;9206;50.994;4.538;2023-08-20T20:27:17;6.72;;;1.83;;
18162;SDS011;9206;50.994;4.538;2023-08-20T20:30:10;3.90;;;1.45;;
18162;SDS011;9206;50.994;4.538;2023-08-20T20:32:59;6.53;;;1.75;;
18162;SDS011;9206;50.994;4.538;2023-08-20T20:35:53;2.63;;;1.45;;
18162;SDS011;9206;50.994;4.538;2023-08-20T20:38:40;6.97;;;1.50;;
18162;SDS011;9206;50.994;4.538;2023-08-20T20:41:35;1.88;;;1.33;;
18162;SDS011;9206;50.994;4.538;2023-08-20T20:44:28;3.15;;;1.58;;
18162;SDS011;9206;50.994;4.538;2023-08-20T20:47:16;9.30;;;1.80;;
18162;SDS011;9206;50.994;4.538;2023-08-20T20:50:05;2.95;;;1.23;;
18162;SDS011;9206;50.994;4.538;2023-08-20T20:53:10;4.93;;;1.42;;
18162;SDS011;9206;50.994;4.538;2023-08-20T20:56:01;3.40;;;1.20;;
18162;SDS011;9206;50.994;4.538;2023-08-20T20:58:51;2.55;;;1.35;;
18162;SDS011;9206;50.994;4.538;2023-08-20T21:01:39;7.07;;;1.77;;
18162;SDS011;9206;50.994;4.538;2023-08-20T21:04:32;7.25;;;1.85;;
18162;SDS011;9206;50.994;4.538;2023-08-20T21:07:21;4.50;;;1.60;;
18162;SDS011;9206;50.994;4.538;2023-08-20T21:10:09;4.70;;;1.90;;
18162;SDS011;9206;50.994;4.538;2023-08-20T21:15:54;3.92;;;1.77;;
18162;SDS011;9206;50.994;4.538;2023-08-20T21:18:44;4.78;;;1.73;;
18162;SDS011;9206;50.994;4.538;2023-08-20T21:21:31;3.72;;;1.60;;
18162;SDS011;9206;50.994;4.538;2023-08-20T21:24:22;3.78;;;1.50;;
18162;SDS011;9206;50.994;4.538;2023-08-20T21:27:15;3.72;;;1.55;;
18162;SDS011;9206;50.994;4.538;2023-08-20T21:30:04;4.18;;;1.40;;
18162;SDS011;9206;50.994;4.538;2023-08-20T21:35:44;1.88;;;1.50;;
18162;SDS011;9206;50.994;4.538;2023-08-20T21:38:32;3.75;;;1.67;;
18162;SDS011;9206;50.994;4.538;2023-08-20T21:41:20;3.83;;;1.75;;
18162;SDS011;9206;50.994;4.538;2023-08-20T21:44:16;5.03;;;1.70;;
18162;SDS011;9206;50.994;4.538;2023-08-20T21:47:18;2.58;;;1.50;;
18162;SDS011;9206;50.994;4.538;2023-08-20T21:50:15;4.63;;;1.70;;
18162;SDS011;9206;50.994;4.538;2023-08-20T21:53:09;3.63;;;2.03;;
18162;SDS011;9206;50.994;4.538;2023-08-20T21:55:57;5.32;;;1.63;;
18162;SDS011;9206;50.994;4.538;2023-08-20T21:58:46;3.53;;;1.58;;
18162;SDS011;9206;50.994;4.538;2023-08-20T22:01:36;2.55;;;1.73;;
18162;SDS011;9206;50.994;4.538;2023-08-20T22:04:31;4.18;;;2.30;;
18162;SDS011;9206;50.994;4.538;2023-08-20T22:07:20;2.17;;;1.63;;
18162;SDS011;9206;50.994;4.538;2023-08-20T22:10:09;3.63;;;1.63;;
18162;SDS011;9206;50.994;4.538;2023-08-20T22:12:57;2.88;;;1.77;;
18162;SDS011;9206;50.994;4.538;2023-08-20T22:15:47;3.67;;;1.63;;
18162;SDS011;9206;50.994;4.538;2023-08-20T22:18:37;4.30;;;1.70;;
18162;SDS011;9206;50.994;4.538;2023-08-20T22:21:30;4.97;;;2.00;;
18162;SDS011;9206;50.994;4.538;2023-08-20T22:24:19;3.20;;;1.70;;
18162;SDS011;9206;50.994;4.538;2023-08-20T22:27:08;3.40;;;1.60;;